Latest Weather Observations for Gunnedah Airport

IDN60801

Issued at 7:03 am EDT Saturday 13 February 2016 (issued every 30 minutes, with the page automatically refreshed every 10 minutes)

About weather observations | Map of weather stations | Latest weather observations for NSW | Other Formats
Station Details ID: 055202 Name: GUNNEDAH AIRPORT AWS Lat: -30.95 Lon: 150.25 Height: 262.57 m
Data from the previous 72 hours. | See also: Recent months at Gunnedah Airport
Date/Time
EDT
Temp
°C
App
Temp
°C
Dew
Point
Rel
Hum
%
Delta-T
°C
Wind Press
QNH
hPa
Press
MSL
hPa
Rain
since 9 am
mm
Dir
 
Spd
km/h
Gust
km/h
Spd
kts
Gust
kts
13/07:00am 17.8 16.8 13.5 76 2.5 ESE 11 15 6 8 1014.0 1012.6 0.0
13/06:30am 17.6 16.1 13.1 75 2.6 ESE 13 17 7 9 1013.7 1012.3 0.0
13/06:00am 17.5 16.0 13.2 76 2.4 SE 13 15 7 8 1013.6 1012.1 0.0
13/05:30am 18.4 16.9 13.1 71 3.0 ESE 13 15 7 8 1013.2 1011.7 0.0
13/05:00am 19.3 17.6 13.5 69 3.3 ESE 15 17 8 9 1013.0 1011.5 0.0
13/04:30am 19.7 18.0 13.6 68 3.5 SE 15 17 8 9 1013.2 1011.7 0.0
13/04:00am 19.5 18.1 13.4 68 3.5 SE 13 17 7 9 1013.2 1011.7 0.0
13/03:30am 19.6 18.0 12.8 65 3.9 ESE 13 17 7 9 1013.1 1011.6 0.0
13/03:00am 20.2 18.4 13.2 64 4.0 ESE 15 19 8 10 1013.2 1011.7 0.0
13/02:30am 20.5 19.0 13.0 62 4.3 SE 13 17 7 9 1013.3 1011.8 0.0
13/02:00am 20.5 19.6 12.5 60 4.6 SE 9 13 5 7 1013.5 1012.0 0.0
13/01:30am 20.9 19.8 12.1 57 5.0 SE 9 11 5 6 1013.6 1012.1 0.0
13/01:00am 22.0 20.3 12.3 54 5.6 SE 13 17 7 9 1013.7 1012.3 0.0
13/12:30am 22.1 20.3 12.1 53 5.7 SE 13 17 7 9 1013.7 1012.3 0.0
13/12:00am 22.5 20.3 12.2 52 5.9 SE 15 17 8 9 1013.8 1012.4 0.0
 
Date/Time
EDT
Temp
°C
App
Temp
°C
Dew
Point
Rel
Hum
%
Delta-T
°C
Wind Press
QNH
hPa
Press
MSL
hPa
Rain
since 9 am
mm
Dir
 
Spd
km/h
Gust
km/h
Spd
kts
Gust
kts
12/11:30pm 22.7 20.8 11.7 49 6.2 SE 13 15 7 8 1013.7 1012.3 0.0
12/11:00pm 24.2 22.0 12.2 47 6.9 SE 15 19 8 10 1013.6 1012.1 0.0
12/10:30pm 24.3 22.2 12.3 47 6.9 SSE 15 17 8 9 1013.4 1011.9 0.0
12/10:00pm 25.2 22.6 12.1 44 7.6 SE 17 20 9 11 1013.5 1012.0 0.0
12/09:30pm 26.3 23.2 11.6 40 8.5 SE 19 24 10 13 1013.1 1011.6 0.0
12/09:00pm 27.4 24.1 11.0 36 9.4 SE 19 24 10 13 1012.8 1011.3 0.0
12/08:30pm 28.9 24.6 10.6 32 10.5 SSE 24 32 13 17 1012.5 1011.0 0.0
12/08:00pm 29.5 25.1 9.1 28 11.5 SSE 22 32 12 17 1012.2 1010.7 0.0
12/07:30pm 30.6 26.2 8.9 26 12.2 SSE 22 28 12 15 1011.8 1010.3 0.0
12/07:00pm 31.6 26.7 8.6 24 13.0 S 24 32 13 17 1011.6 1010.1 0.0
12/06:30pm 32.5 28.0 8.7 23 13.5 SSE 22 30 12 16 1011.3 1009.8 0.0
12/06:00pm 32.8 27.9 8.3 22 13.8 SSE 24 32 13 17 1011.4 1009.9 0.0
12/05:30pm 33.6 29.4 8.3 21 14.3 SE 20 35 11 19 1011.3 1009.8 0.0
12/05:00pm 33.8 28.9 8.4 21 14.4 SSE 24 33 13 18 1011.3 1009.8 0.0
12/04:30pm 33.2 28.9 7.9 21 14.2 SE 20 30 11 16 1011.4 1009.9 0.0
12/04:00pm 32.6 28.2 7.4 21 14.0 ESE 20 35 11 19 1011.6 1010.1 0.0
12/03:30pm 34.1 29.6 8.7 21 14.5 ESE 22 37 12 20 1012.1 1010.6 0.0
12/03:00pm 33.8 28.9 7.0 19 14.9 SSE 22 35 12 19 1012.4 1010.9 0.0
12/02:30pm 33.5 29.7 7.5 20 14.5 ESE 17 26 9 14 1012.7 1011.2 0.0
12/02:00pm 32.9 28.6 7.0 20 14.3 SE 19 30 10 16 1013.1 1011.6 0.0
12/01:30pm 31.7 28.2 8.7 24 13.0 SE 17 28 9 15 1013.6 1012.1 0.0
12/01:00pm 31.4 28.0 9.0 25 12.7 ESE 17 24 9 13 1014.1 1012.7 0.0
12/12:30pm 30.3 27.7 9.2 27 11.9 SE 13 22 7 12 1014.6 1013.1 0.0
12/12:00pm 29.7 26.3 9.3 28 11.5 SE 17 24 9 13 1015.2 1013.7 0.0
12/11:30am 28.8 25.6 10.0 31 10.7 SE 17 22 9 12 1015.5 1014.0 0.0
12/11:00am 28.1 26.0 11.2 35 9.8 SE 13 22 7 12 1015.7 1014.2 0.0
12/10:30am 25.9 23.9 11.6 40 8.2 ESE 13 20 7 11 1015.8 1014.3 0.0
12/10:00am 26.4 23.6 12.5 42 8.1 E 19 26 10 14 1015.9 1014.4 0.0
12/09:30am 25.7 23.1 13.2 46 7.4 E 19 26 10 14 1015.9 1014.4 0.0
12/09:00am 24.9 23.0 14.1 51 6.4 ESE 17 20 9 11 1015.9 1014.4 0.0
12/08:30am 22.5 20.9 13.8 58 5.1 ESE 15 20 8 11 1015.8 1014.3 0.0
12/08:00am 20.6 19.5 14.3 67 3.7 ESE 13 19 7 10 1015.5 1014.0 0.0
12/07:30am 19.8 19.4 15.2 75 2.7 SE 11 15 6 8 1015.2 1013.7 0.0
12/07:00am 18.0 17.0 14.7 81 1.9 SE 13 15 7 8 1014.8 1013.3 0.0
12/06:30am 17.8 16.8 14.5 81 1.9 SSE 13 13 7 7 1014.4 1012.9 0.0
12/06:00am 19.0 18.4 14.7 76 2.5 SE 11 15 6 8 1014.1 1012.7 0.0
12/05:30am 19.9 18.5 14.5 71 3.2 ESE 15 17 8 9 1014.0 1012.6 0.0
12/05:00am 20.3 18.6 14.7 70 3.3 SE 17 20 9 11 1013.7 1012.3 0.0
12/04:30am 20.9 19.2 14.8 68 3.6 SE 17 20 9 11 1013.6 1012.1 0.0
12/04:00am 20.2 19.4 15.0 72 3.1 SE 13 15 7 8 1013.8 1012.4 0.0
12/03:30am 20.1 19.7 15.1 73 3.0 SE 11 15 6 8 1013.5 1012.0 0.0
12/03:00am 21.1 20.3 15.2 69 3.5 SE 13 15 7 8 1013.6 1012.1 0.0
12/02:30am 21.7 21.4 15.5 68 3.7 ESE 11 15 6 8 1013.5 1012.0 0.0
12/02:00am 21.2 20.6 15.7 71 3.3 ESE 13 15 7 8 1013.4 1011.9 0.0
12/01:30am 22.0 21.3 16.5 71 3.4 SE 15 19 8 10 1013.8 1012.4 0.0
12/01:00am 22.9 21.9 16.7 68 3.8 SE 17 22 9 12 1014.3 1012.8 0.0
12/12:30am 23.6 22.2 16.9 66 4.2 SE 20 28 11 15 1014.5 1013.0 0.0
12/12:00am 24.2 22.3 16.7 63 4.7 SSE 22 30 12 16 1014.4 1012.9 0.0
 
Date/Time
EDT
Temp
°C
App
Temp
°C
Dew
Point
Rel
Hum
%
Delta-T
°C
Wind Press
QNH
hPa
Press
MSL
hPa
Rain
since 9 am
mm
Dir
 
Spd
km/h
Gust
km/h
Spd
kts
Gust
kts
11/11:30pm 24.7 21.8 16.2 59 5.2 SSE 26 35 14 19 1014.1 1012.7 0.0
11/11:00pm 25.6 22.4 15.3 53 6.3 SSE 26 39 14 21 1013.9 1012.5 0.0
11/10:30pm 26.1 22.7 13.6 46 7.4 SSE 24 37 13 20 1013.5 1012.0 0.0
11/10:00pm 27.4 22.9 12.6 40 8.7 SSE 28 39 15 21 1013.3 1011.8 0.0
11/09:30pm 28.1 23.3 10.3 33 10.1 SSE 26 39 14 21 1012.5 1011.0 0.0
11/09:08pm 28.7 23.4 9.9 31 10.7 SSE 28 46 15 25 1012.0 1010.5 0.0
11/09:00pm 29.1 23.4 9.8 30 11.0 SSE 30 39 16 21 1011.8 1010.3 0.0
11/08:30pm 30.0 24.6 9.5 28 11.6 SSE 28 41 15 22 1011.3 1009.8 0.0
11/08:00pm 30.2 25.0 7.4 24 12.5 SSE 24 33 13 18 1010.7 1009.2 0.0
11/07:30pm 31.2 25.6 7.0 22 13.3 SSE 26 35 14 19 1010.1 1008.6 0.0
11/07:00pm 31.9 25.9 5.4 19 14.2 SSE 26 41 14 22 1009.7 1008.2 0.0
11/06:30pm 33.6 27.6 5.2 17 15.3 SSE 26 33 14 18 1009.5 1008.0 0.0
11/06:00pm 33.3 26.9 5.0 17 15.2 SSE 28 35 15 19 1009.4 1007.9 0.0
11/05:30pm 34.7 30.0 5.2 16 16.0 SE 19 33 10 18 1009.4 1007.9 0.0
11/05:00pm 34.9 30.1 4.4 15 16.4 SE 19 33 10 18 1009.6 1008.1 0.0
11/04:30pm 35.6 30.7 5.0 15 16.6 ESE 20 30 11 16 1010.0 1008.5 0.0
11/04:00pm 35.0 30.0 4.5 15 16.4 ESE 20 35 11 19 1010.5 1009.0 0.0
11/03:30pm 35.5 30.2 4.9 15 16.6 SE 22 39 12 21 1010.8 1009.3 0.0
11/03:00pm 35.2 30.6 6.5 17 15.9 SE 20 35 11 19 1011.2 1009.7 0.0
11/02:30pm 34.2 29.8 7.3 19 15.0 SE 20 30 11 16 1011.7 1010.2 0.0
11/02:00pm 34.0 29.7 7.1 19 15.0 SE 19 28 10 15 1012.0 1010.5 0.0
11/01:30pm 32.9 30.1 7.0 20 14.3 S 11 22 6 12 1012.3 1010.8 0.0
11/01:00pm 32.8 31.2 10.2 25 13.1 W 9 20 5 11 1012.6 1011.1 0.0
11/12:30pm 32.4 30.9 10.4 26 12.8 SSW 9 17 5 9 1012.9 1011.4 0.0
11/12:00pm 30.6 28.6 10.0 28 11.8 WSW 11 19 6 10 1013.4 1011.9 0.0
11/11:30am 31.1 29.7 11.0 29 11.7 WNW 9 17 5 9 1013.7 1012.3 0.0
11/11:00am 29.1 28.0 12.1 35 10.0 SSW 9 17 5 9 1014.0 1012.6 0.0
11/10:30am 27.8 27.0 11.8 37 9.3 S 7 13 4 7 1014.3 1012.8 0.0
11/10:00am 27.4 27.2 13.0 41 8.5 SE 6 11 3 6 1014.5 1013.0 0.0
11/09:30am 26.1 25.7 12.9 44 7.8 ESE 7 11 4 6 1014.7 1013.2 0.0
11/09:00am 24.6 23.8 12.9 48 6.8 ESE 9 13 5 7 1014.8 1013.3 0.0
11/08:30am 23.7 22.7 13.3 52 6.1 ESE 11 17 6 9 1014.6 1013.1 0.0
11/08:00am 22.4 21.1 12.6 54 5.6 SE 11 15 6 8 1014.5 1013.0 0.0
11/07:30am 20.1 19.7 13.1 64 4.0 SSE 7 9 4 5 1013.9 1012.5 0.0
11/07:00am 17.1 16.0 11.8 71 2.9 S 9 11 5 6 1013.3 1011.8 0.0
11/06:30am 16.5 15.0 11.9 74 2.5 S 11 13 6 7 1012.9 1011.4 0.0
11/06:00am 16.8 15.2 11.5 71 2.9 SE 11 13 6 7 1012.7 1011.2 0.0
11/05:30am 16.6 15.7 11.3 71 2.9 ESE 7 9 4 5 1012.4 1010.9 0.0
11/05:00am 17.7 16.9 11.7 68 3.3 SE 7 9 4 5 1012.2 1010.7 0.0
11/04:30am 18.2 16.8 11.0 63 3.9 SSE 9 15 5 8 1011.9 1010.4 0.0
11/04:00am 19.3 17.0 11.6 61 4.3 SE 15 19 8 10 1011.7 1010.2 0.0
11/03:30am 19.4 16.6 11.2 59 4.5 SE 17 20 9 11 1011.8 1010.3 0.0
11/03:00am 20.0 17.5 11.0 56 5.0 SE 15 19 8 10 1012.0 1010.5 0.0
11/02:30am 20.5 18.0 10.9 54 5.3 SE 15 19 8 10 1012.1 1010.6 0.0
11/02:00am 20.5 17.8 10.3 52 5.6 SE 15 17 8 9 1012.2 1010.7 0.0
11/01:30am 21.4 18.7 10.3 49 6.1 SE 15 17 8 9 1012.4 1010.9 0.0
11/01:00am 21.9 19.1 10.1 47 6.5 SE 15 17 8 9 1012.6 1011.1 0.0
11/12:30am 22.6 19.8 10.1 45 6.9 SE 15 17 8 9 1012.8 1011.3 0.0
11/12:00am 21.0 18.7 8.9 46 6.5 SSE 11 15 6 8 1012.8 1011.3 0.0
 
Date/Time
EDT
Temp
°C
App
Temp
°C
Dew
Point
Rel
Hum
%
Delta-T
°C
Wind Press
QNH
hPa
Press
MSL
hPa
Rain
since 9 am
mm
Dir
 
Spd
km/h
Gust
km/h
Spd
kts
Gust
kts
10/11:30pm 20.4 18.4 8.7 47 6.2 SSE 9 13 5 7 1012.8 1011.3 0.0
10/11:00pm 21.5 18.8 7.3 40 7.4 ESE 11 15 6 8 1012.9 1011.4 0.0
10/10:30pm 22.0 19.9 6.7 37 7.9 SSE 7 13 4 7 1013.0 1011.5 0.0
10/10:00pm 23.5 20.6 6.3 33 8.9 SSW 11 13 6 7 1012.8 1011.3 0.0
10/09:30pm 23.2 19.4 5.6 32 9.0 SSW 15 15 8 8 1012.6 1011.1 0.0
10/09:00pm 24.2 21.1 5.5 30 9.6 SSW 11 13 6 7 1012.4 1010.9 0.0
10/08:30pm 25.8 22.9 4.9 26 10.7 S 9 11 5 6 1012.3 1010.8 0.0
10/08:00pm 27.2 24.2 6.0 26 11.2 S 11 20 6 11 1012.2 1010.7 0.0
10/07:30pm 29.6 26.0 5.0 21 12.9 SSE 13 17 7 9 1012.0 1010.5 0.0
10/07:00pm 31.2 27.4 4.1 18 14.2 SE 13 20 7 11 1011.7 1010.2 0.0
10/06:30pm 31.6 27.5 4.4 18 14.3 ESE 15 20 8 11 1011.5 1010.0 0.0
10/06:00pm 32.1 27.9 4.0 17 14.7 SE 15 26 8 14 1011.3 1009.8 0.0
10/05:30pm 31.9 27.8 4.6 18 14.4 ESE 15 24 8 13 1011.3 1009.8 0.0
10/05:00pm 31.9 28.9 6.2 20 14.0 SE 11 24 6 13 1011.4 1009.9 0.0
10/04:30pm 31.8 29.4 6.8 21 13.7 SE 9 24 5 13 1011.6 1010.1 0.0
10/04:00pm 32.1 28.6 5.6 19 14.3 S 13 20 7 11 1011.8 1010.3 0.0
10/03:30pm 31.7 27.9 6.0 20 13.9 SE 15 24 8 13 1012.2 1010.7 0.0
10/03:00pm 31.0 28.2 8.7 25 12.5 ESE 13 20 7 11 1012.7 1011.2 0.0
10/02:30pm 30.9 29.4 9.2 26 12.3 ESE 7 15 4 8 1013.1 1011.6 0.0
10/02:00pm 30.0 27.3 9.0 27 11.8 NE 13 26 7 14 1013.5 1012.0 0.0
10/01:30pm 30.3 28.3 10.3 29 11.5 E 11 24 6 13 1014.0 1012.6 0.0
10/01:00pm 28.9 26.8 9.6 30 10.9 SSE 11 20 6 11 1014.5 1013.0 0.0
10/12:30pm 28.8 26.2 9.5 30 10.9 SSW 13 24 7 13 1014.9 1013.4 0.0
10/12:00pm 27.1 24.4 9.0 32 10.0 SSW 13 19 7 10 1015.4 1013.9 0.0
10/11:30am 26.8 24.4 10.1 35 9.4 ESE 13 22 7 12 1015.8 1014.3 0.0
10/11:00am 26.1 24.1 10.3 37 8.9 E 11 19 6 10 1016.2 1014.7 0.0
10/10:30am 25.2 23.2 11.4 42 7.9 ESE 13 20 7 11 1016.4 1014.9 0.0
10/10:00am 23.9 22.3 11.6 46 7.0 SE 11 19 6 10 1016.6 1015.1 0.0
10/09:30am 23.4 21.9 11.8 48 6.6 ESE 11 19 6 10 1016.7 1015.2 0.0
10/09:00am 22.5 20.6 11.9 51 6.0 ESE 13 17 7 9 1016.7 1015.2 0.0
10/08:30am 21.9 20.6 12.5 55 5.4 SE 11 13 6 7 1016.6 1015.1 0.0
10/08:00am 20.7 19.0 12.4 59 4.7 SE 13 17 7 9 1016.3 1014.8 0.0
10/07:30am 18.8 17.2 12.8 68 3.4 SE 13 15 7 8 1016.2 1014.7 0.0

Other Formats:

Comma delimited format used in spreadsheet applications
http://www.bom.gov.au/fwo/IDN60801/IDN60801.95740.axf

JavaScript Object Notation format (JSON) in row-major order
http://www.bom.gov.au/fwo/IDN60801/IDN60801.95740.json